sensor_id;sensor_type;location;lat;lon;timestamp;pressure;altitude;pressure_sealevel;temperature;humidity
60719;BME280;46567;51.660;5.824;2023-01-27T00:02:51;102370.0;;;5.9;86.5
60719;BME280;46567;51.660;5.824;2023-01-27T00:07:51;102370.0;;;5.9;86.0
60719;BME280;46567;51.660;5.824;2023-01-27T00:12:52;102370.0;;;5.8;86.5
60719;BME280;46567;51.660;5.824;2023-01-27T00:17:51;102360.0;;;5.8;86.5
60719;BME280;46567;51.660;5.824;2023-01-27T00:22:51;102360.0;;;5.8;86.5
60719;BME280;46567;51.660;5.824;2023-01-27T00:27:51;102370.0;;;5.8;86.5
60719;BME280;46567;51.660;5.824;2023-01-27T00:32:51;102370.0;;;5.7;86.5
60719;BME280;46567;51.660;5.824;2023-01-27T00:37:51;102380.0;;;5.7;86.5
60719;BME280;46567;51.660;5.824;2023-01-27T00:42:51;102380.0;;;5.7;87.0
60719;BME280;46567;51.660;5.824;2023-01-27T00:47:52;102370.0;;;5.6;87.0
60719;BME280;46567;51.660;5.824;2023-01-27T00:52:51;102380.0;;;5.6;87.0
60719;BME280;46567;51.660;5.824;2023-01-27T00:57:51;102370.0;;;5.6;87.0
60719;BME280;46567;51.660;5.824;2023-01-27T01:02:51;102390.0;;;5.6;86.5
60719;BME280;46567;51.660;5.824;2023-01-27T01:07:51;102380.0;;;5.6;86.5
60719;BME280;46567;51.660;5.824;2023-01-27T01:12:51;102380.0;;;5.6;86.5
60719;BME280;46567;51.660;5.824;2023-01-27T01:17:51;102390.0;;;5.5;86.5
60719;BME280;46567;51.660;5.824;2023-01-27T01:22:51;102390.0;;;5.5;86.5
60719;BME280;46567;51.660;5.824;2023-01-27T01:27:51;102400.0;;;5.5;86.5
60719;BME280;46567;51.660;5.824;2023-01-27T01:32:51;102390.0;;;5.5;87.0
60719;BME280;46567;51.660;5.824;2023-01-27T01:37:52;102400.0;;;5.5;87.0
60719;BME280;46567;51.660;5.824;2023-01-27T01:43:02;102410.0;;;5.5;86.5
60719;BME280;46567;51.660;5.824;2023-01-27T01:47:51;102420.0;;;5.5;86.5
60719;BME280;46567;51.660;5.824;2023-01-27T01:52:52;102420.0;;;5.5;86.0
60719;BME280;46567;51.660;5.824;2023-01-27T01:57:52;102410.0;;;5.5;86.5
60719;BME280;46567;51.660;5.824;2023-01-27T02:02:52;102410.0;;;5.5;86.5
60719;BME280;46567;51.660;5.824;2023-01-27T02:08:05;102410.0;;;5.4;86.0
60719;BME280;46567;51.660;5.824;2023-01-27T02:12:51;102410.0;;;5.4;86.0
60719;BME280;46567;51.660;5.824;2023-01-27T02:17:51;102420.0;;;5.4;86.0
60719;BME280;46567;51.660;5.824;2023-01-27T02:23:05;102420.0;;;5.4;86.0
60719;BME280;46567;51.660;5.824;2023-01-27T02:27:51;102420.0;;;5.4;86.5
60719;BME280;46567;51.660;5.824;2023-01-27T02:32:51;102420.0;;;5.4;86.0
60719;BME280;46567;51.660;5.824;2023-01-27T02:37:52;102430.0;;;5.3;86.5
60719;BME280;46567;51.660;5.824;2023-01-27T02:42:56;102430.0;;;5.4;86.5
60719;BME280;46567;51.660;5.824;2023-01-27T02:47:51;102430.0;;;5.4;86.5
60719;BME280;46567;51.660;5.824;2023-01-27T02:52:51;102440.0;;;5.4;87.0
60719;BME280;46567;51.660;5.824;2023-01-27T02:57:51;102430.0;;;5.3;87.0
60719;BME280;46567;51.660;5.824;2023-01-27T03:02:51;102430.0;;;5.4;87.0
60719;BME280;46567;51.660;5.824;2023-01-27T03:07:51;102420.0;;;5.3;87.5
60719;BME280;46567;51.660;5.824;2023-01-27T03:12:51;102430.0;;;5.3;87.5
60719;BME280;46567;51.660;5.824;2023-01-27T03:17:51;102440.0;;;5.3;87.5
60719;BME280;46567;51.660;5.824;2023-01-27T03:22:51;102440.0;;;5.3;87.5
60719;BME280;46567;51.660;5.824;2023-01-27T03:27:51;102450.0;;;5.3;87.5
60719;BME280;46567;51.660;5.824;2023-01-27T03:32:51;102440.0;;;5.3;87.5
60719;BME280;46567;51.660;5.824;2023-01-27T03:37:51;102440.0;;;5.3;87.5
60719;BME280;46567;51.660;5.824;2023-01-27T03:42:52;102450.0;;;5.3;87.5
60719;BME280;46567;51.660;5.824;2023-01-27T03:47:51;102460.0;;;5.3;87.5
60719;BME280;46567;51.660;5.824;2023-01-27T03:52:51;102470.0;;;5.2;87.5
60719;BME280;46567;51.660;5.824;2023-01-27T03:57:51;102470.0;;;5.2;87.5
60719;BME280;46567;51.660;5.824;2023-01-27T04:02:51;102480.0;;;5.2;87.5
60719;BME280;46567;51.660;5.824;2023-01-27T04:07:51;102480.0;;;5.1;88.0
60719;BME280;46567;51.660;5.824;2023-01-27T04:12:51;102480.0;;;5.1;88.0
60719;BME280;46567;51.660;5.824;2023-01-27T04:17:51;102480.0;;;5.1;88.0
60719;BME280;46567;51.660;5.824;2023-01-27T04:22:51;102480.0;;;5.1;88.0
60719;BME280;46567;51.660;5.824;2023-01-27T04:27:51;102470.0;;;5.0;88.0
60719;BME280;46567;51.660;5.824;2023-01-27T04:32:51;102470.0;;;5.0;88.5
60719;BME280;46567;51.660;5.824;2023-01-27T04:37:51;102490.0;;;5.0;88.5
60719;BME280;46567;51.660;5.824;2023-01-27T04:42:52;102480.0;;;5.0;88.5
60719;BME280;46567;51.660;5.824;2023-01-27T04:47:51;102490.0;;;5.0;89.0
60719;BME280;46567;51.660;5.824;2023-01-27T04:52:51;102500.0;;;5.0;89.0
60719;BME280;46567;51.660;5.824;2023-01-27T04:57:52;102490.0;;;5.0;89.0
60719;BME280;46567;51.660;5.824;2023-01-27T05:02:51;102500.0;;;5.0;89.0
60719;BME280;46567;51.660;5.824;2023-01-27T05:07:51;102510.0;;;5.0;89.0
60719;BME280;46567;51.660;5.824;2023-01-27T05:12:51;102510.0;;;5.0;89.0
60719;BME280;46567;51.660;5.824;2023-01-27T05:17:52;102510.0;;;5.0;89.0
60719;BME280;46567;51.660;5.824;2023-01-27T05:22:51;102510.0;;;5.0;89.0
60719;BME280;46567;51.660;5.824;2023-01-27T05:27:52;102510.0;;;5.0;89.0
60719;BME280;46567;51.660;5.824;2023-01-27T05:32:51;102510.0;;;4.9;89.0
60719;BME280;46567;51.660;5.824;2023-01-27T05:37:51;102510.0;;;5.0;89.5
60719;BME280;46567;51.660;5.824;2023-01-27T05:42:52;102520.0;;;5.0;89.5
60719;BME280;46567;51.660;5.824;2023-01-27T05:47:51;102520.0;;;5.0;89.5
60719;BME280;46567;51.660;5.824;2023-01-27T05:52:52;102520.0;;;5.1;89.5
60719;BME280;46567;51.660;5.824;2023-01-27T05:57:53;102520.0;;;5.1;89.0
60719;BME280;46567;51.660;5.824;2023-01-27T06:02:51;102530.0;;;5.1;89.0
60719;BME280;46567;51.660;5.824;2023-01-27T06:07:51;102530.0;;;5.1;89.0
60719;BME280;46567;51.660;5.824;2023-01-27T06:12:51;102520.0;;;5.1;89.5
60719;BME280;46567;51.660;5.824;2023-01-27T06:17:52;102530.0;;;5.1;89.0
60719;BME280;46567;51.660;5.824;2023-01-27T06:22:51;102530.0;;;5.1;89.0
60719;BME280;46567;51.660;5.824;2023-01-27T06:27:52;102530.0;;;5.2;89.0
60719;BME280;46567;51.660;5.824;2023-01-27T06:32:52;102540.0;;;5.1;89.0
60719;BME280;46567;51.660;5.824;2023-01-27T06:37:52;102540.0;;;5.1;89.0
60719;BME280;46567;51.660;5.824;2023-01-27T06:42:52;102550.0;;;5.1;89.0
60719;BME280;46567;51.660;5.824;2023-01-27T06:47:52;102550.0;;;5.2;88.5
60719;BME280;46567;51.660;5.824;2023-01-27T06:52:58;102550.0;;;5.2;89.0
60719;BME280;46567;51.660;5.824;2023-01-27T06:57:52;102550.0;;;5.2;88.5
60719;BME280;46567;51.660;5.824;2023-01-27T07:02:53;102560.0;;;5.2;88.0
60719;BME280;46567;51.660;5.824;2023-01-27T07:07:51;102560.0;;;5.3;88.0
60719;BME280;46567;51.660;5.824;2023-01-27T07:12:52;102560.0;;;5.3;88.0
60719;BME280;46567;51.660;5.824;2023-01-27T07:17:52;102570.0;;;5.3;88.0
60719;BME280;46567;51.660;5.824;2023-01-27T07:22:52;102560.0;;;5.3;87.5
60719;BME280;46567;51.660;5.824;2023-01-27T07:27:52;102570.0;;;5.3;87.5
60719;BME280;46567;51.660;5.824;2023-01-27T07:32:52;102580.0;;;5.3;87.5
60719;BME280;46567;51.660;5.824;2023-01-27T07:37:52;102590.0;;;5.3;87.5
60719;BME280;46567;51.660;5.824;2023-01-27T07:42:51;102600.0;;;5.3;87.0
60719;BME280;46567;51.660;5.824;2023-01-27T07:47:52;102600.0;;;5.3;87.5
60719;BME280;46567;51.660;5.824;2023-01-27T07:52:52;102610.0;;;5.3;87.5
60719;BME280;46567;51.660;5.824;2023-01-27T07:57:52;102600.0;;;5.3;87.5
60719;BME280;46567;51.660;5.824;2023-01-27T08:02:53;102610.0;;;5.3;87.0
60719;BME280;46567;51.660;5.824;2023-01-27T08:07:53;102610.0;;;5.3;87.0
60719;BME280;46567;51.660;5.824;2023-01-27T08:12:52;102610.0;;;5.3;87.0
60719;BME280;46567;51.660;5.824;2023-01-27T08:17:52;102610.0;;;5.3;87.0
60719;BME280;46567;51.660;5.824;2023-01-27T08:22:52;102620.0;;;5.3;87.0
60719;BME280;46567;51.660;5.824;2023-01-27T08:27:53;102620.0;;;5.2;87.0
60719;BME280;46567;51.660;5.824;2023-01-27T08:32:51;102610.0;;;5.2;87.0
60719;BME280;46567;51.660;5.824;2023-01-27T08:37:52;102620.0;;;5.2;87.0
60719;BME280;46567;51.660;5.824;2023-01-27T08:42:51;102620.0;;;5.3;87.0
60719;BME280;46567;51.660;5.824;2023-01-27T08:47:52;102630.0;;;5.3;87.0
60719;BME280;46567;51.660;5.824;2023-01-27T08:52:52;102650.0;;;5.3;87.0
60719;BME280;46567;51.660;5.824;2023-01-27T08:57:52;102650.0;;;5.3;86.5
60719;BME280;46567;51.660;5.824;2023-01-27T09:02:51;102650.0;;;5.3;86.5
60719;BME280;46567;51.660;5.824;2023-01-27T09:07:52;102650.0;;;5.4;86.0
60719;BME280;46567;51.660;5.824;2023-01-27T09:12:51;102650.0;;;5.3;86.0
60719;BME280;46567;51.660;5.824;2023-01-27T09:17:51;102660.0;;;5.3;86.5
60719;BME280;46567;51.660;5.824;2023-01-27T09:22:53;102660.0;;;5.3;86.0
60719;BME280;46567;51.660;5.824;2023-01-27T09:27:52;102670.0;;;5.4;86.0
60719;BME280;46567;51.660;5.824;2023-01-27T09:32:52;102670.0;;;5.4;86.0
60719;BME280;46567;51.660;5.824;2023-01-27T09:37:53;102680.0;;;5.5;86.0
60719;BME280;46567;51.660;5.824;2023-01-27T09:43:56;102670.0;;;5.5;86.0
60719;BME280;46567;51.660;5.824;2023-01-27T09:49:26;102680.0;;;5.5;85.5
60719;BME280;46567;51.660;5.824;2023-01-27T09:55:27;102680.0;;;5.6;85.0
60719;BME280;46567;51.660;5.824;2023-01-27T10:00:50;102680.0;;;5.6;85.0
60719;BME280;46567;51.660;5.824;2023-01-27T10:07:35;102680.0;;;5.6;85.0
60719;BME280;46567;51.660;5.824;2023-01-27T10:13:15;102680.0;;;5.7;85.5
60719;BME280;46567;51.660;5.824;2023-01-27T10:19:03;102690.0;;;5.8;85.5
60719;BME280;46567;51.660;5.824;2023-01-27T10:24:59;102680.0;;;5.8;85.0
60719;BME280;46567;51.660;5.824;2023-01-27T10:28:33;102690.0;;;5.8;85.5
60719;BME280;46567;51.660;5.824;2023-01-27T10:31:47;102690.0;;;5.7;85.5
60719;BME280;46567;51.660;5.824;2023-01-27T10:35:51;102680.0;;;5.7;85.5
60719;BME280;46567;51.660;5.824;2023-01-27T10:40:15;102680.0;;;5.7;85.5
60719;BME280;46567;51.660;5.824;2023-01-27T10:45:51;102680.0;;;5.7;85.5
60719;BME280;46567;51.660;5.824;2023-01-27T10:50:08;102660.0;;;5.8;85.5
60719;BME280;46567;51.660;5.824;2023-01-27T10:53:49;102660.0;;;5.8;86.0
60719;BME280;46567;51.660;5.824;2023-01-27T10:57:54;102670.0;;;5.9;85.5
60719;BME280;46567;51.660;5.824;2023-01-27T11:03:09;102660.0;;;6.0;85.0
60719;BME280;46567;51.660;5.824;2023-01-27T11:07:58;102670.0;;;6.0;84.5
60719;BME280;46567;51.660;5.824;2023-01-27T11:12:58;102660.0;;;6.1;84.5
60719;BME280;46567;51.660;5.824;2023-01-27T11:17:58;102660.0;;;6.1;85.0
60719;BME280;46567;51.660;5.824;2023-01-27T11:22:57;102660.0;;;6.1;84.0
60719;BME280;46567;51.660;5.824;2023-01-27T11:28:14;102670.0;;;6.1;83.5
60719;BME280;46567;51.660;5.824;2023-01-27T11:33:05;102670.0;;;6.0;84.0
60719;BME280;46567;51.660;5.824;2023-01-27T11:37:52;102650.0;;;6.1;84.0
60719;BME280;46567;51.660;5.824;2023-01-27T11:42:54;102640.0;;;6.1;84.0
60719;BME280;46567;51.660;5.824;2023-01-27T11:48:01;102650.0;;;6.2;84.0
60719;BME280;46567;51.660;5.824;2023-01-27T11:52:57;102640.0;;;6.1;83.5
60719;BME280;46567;51.660;5.824;2023-01-27T11:57:55;102650.0;;;6.2;84.0
60719;BME280;46567;51.660;5.824;2023-01-27T12:03:03;102650.0;;;6.3;83.5
60719;BME280;46567;51.660;5.824;2023-01-27T12:07:56;102640.0;;;6.3;84.0
60719;BME280;46567;51.660;5.824;2023-01-27T12:12:52;102630.0;;;6.4;83.5
60719;BME280;46567;51.660;5.824;2023-01-27T12:17:54;102630.0;;;6.4;83.5
60719;BME280;46567;51.660;5.824;2023-01-27T12:22:54;102620.0;;;6.4;82.5
60719;BME280;46567;51.660;5.824;2023-01-27T12:27:54;102620.0;;;6.4;82.5
60719;BME280;46567;51.660;5.824;2023-01-27T12:32:52;102630.0;;;6.4;82.5
60719;BME280;46567;51.660;5.824;2023-01-27T12:37:55;102610.0;;;6.3;82.0
60719;BME280;46567;51.660;5.824;2023-01-27T12:43:04;102620.0;;;6.3;82.5
60719;BME280;46567;51.660;5.824;2023-01-27T12:48:00;102610.0;;;6.4;82.5
60719;BME280;46567;51.660;5.824;2023-01-27T12:52:52;102600.0;;;6.4;83.0
60719;BME280;46567;51.660;5.824;2023-01-27T12:57:52;102600.0;;;6.4;83.0
60719;BME280;46567;51.660;5.824;2023-01-27T13:03:02;102600.0;;;6.4;83.0
60719;BME280;46567;51.660;5.824;2023-01-27T13:07:52;102600.0;;;6.4;83.0
60719;BME280;46567;51.660;5.824;2023-01-27T13:12:54;102600.0;;;6.4;83.0
60719;BME280;46567;51.660;5.824;2023-01-27T13:17:53;102600.0;;;6.4;82.5
60719;BME280;46567;51.660;5.824;2023-01-27T13:22:58;102610.0;;;6.3;83.0
60719;BME280;46567;51.660;5.824;2023-01-27T13:27:58;102610.0;;;6.4;83.0
60719;BME280;46567;51.660;5.824;2023-01-27T13:33:01;102610.0;;;6.4;82.5
60719;BME280;46567;51.660;5.824;2023-01-27T13:37:58;102610.0;;;6.4;83.0
60719;BME280;46567;51.660;5.824;2023-01-27T13:43:11;102610.0;;;6.4;83.0
60719;BME280;46567;51.660;5.824;2023-01-27T13:48:02;102610.0;;;6.4;83.0
60719;BME280;46567;51.660;5.824;2023-01-27T13:52:56;102610.0;;;6.5;82.5
60719;BME280;46567;51.660;5.824;2023-01-27T13:58:11;102610.0;;;6.4;82.5
60719;BME280;46567;51.660;5.824;2023-01-27T14:04:32;102620.0;;;6.4;82.5
60719;BME280;46567;51.660;5.824;2023-01-27T14:10:35;102620.0;;;6.4;82.5
60719;BME280;46567;51.660;5.824;2023-01-27T14:16:04;102620.0;;;6.4;82.5
60719;BME280;46567;51.660;5.824;2023-01-27T14:21:16;102620.0;;;6.5;82.0
60719;BME280;46567;51.660;5.824;2023-01-27T14:26:35;102620.0;;;6.5;82.0
60719;BME280;46567;51.660;5.824;2023-01-27T14:31:13;102630.0;;;6.5;81.5
60719;BME280;46567;51.660;5.824;2023-01-27T14:36:17;102640.0;;;6.4;81.0
60719;BME280;46567;51.660;5.824;2023-01-27T14:41:09;102640.0;;;6.4;80.5
60719;BME280;46567;51.660;5.824;2023-01-27T14:45:20;102650.0;;;6.4;80.5
60719;BME280;46567;51.660;5.824;2023-01-27T14:51:04;102630.0;;;6.3;80.0
60719;BME280;46567;51.660;5.824;2023-01-27T14:56:24;102650.0;;;6.3;80.0
60719;BME280;46567;51.660;5.824;2023-01-27T15:02:43;102650.0;;;6.2;80.5
60719;BME280;46567;51.660;5.824;2023-01-27T15:07:33;102660.0;;;6.2;80.0
60719;BME280;46567;51.660;5.824;2023-01-27T15:13:00;102660.0;;;6.1;80.5
60719;BME280;46567;51.660;5.824;2023-01-27T15:18:50;102670.0;;;6.0;80.5
60719;BME280;46567;51.660;5.824;2023-01-27T15:25:23;102670.0;;;6.0;80.5
60719;BME280;46567;51.660;5.824;2023-01-27T15:26:49;102680.0;;;5.9;81.0
60719;BME280;46567;51.660;5.824;2023-01-27T15:27:52;102690.0;;;5.9;81.0
60719;BME280;46567;51.660;5.824;2023-01-27T15:32:52;102690.0;;;5.9;81.0
60719;BME280;46567;51.660;5.824;2023-01-27T15:38:00;102690.0;;;5.8;81.0
60719;BME280;46567;51.660;5.824;2023-01-27T15:43:03;102700.0;;;5.8;81.5
60719;BME280;46567;51.660;5.824;2023-01-27T15:47:58;102690.0;;;5.8;81.5
60719;BME280;46567;51.660;5.824;2023-01-27T15:52:58;102710.0;;;5.8;81.5
60719;BME280;46567;51.660;5.824;2023-01-27T15:57:59;102700.0;;;5.8;81.0
60719;BME280;46567;51.660;5.824;2023-01-27T16:02:54;102700.0;;;5.7;81.5
60719;BME280;46567;51.660;5.824;2023-01-27T16:07:59;102700.0;;;5.7;80.5
60719;BME280;46567;51.660;5.824;2023-01-27T16:13:20;102700.0;;;5.6;80.0
60719;BME280;46567;51.660;5.824;2023-01-27T16:18:00;102700.0;;;5.6;80.5
60719;BME280;46567;51.660;5.824;2023-01-27T16:22:56;102710.0;;;5.6;80.5
60719;BME280;46567;51.660;5.824;2023-01-27T16:28:02;102720.0;;;5.6;80.5
60719;BME280;46567;51.660;5.824;2023-01-27T16:33:04;102720.0;;;5.6;81.0
60719;BME280;46567;51.660;5.824;2023-01-27T16:38:05;102720.0;;;5.6;81.0
60719;BME280;46567;51.660;5.824;2023-01-27T16:43:05;102720.0;;;5.6;81.0
60719;BME280;46567;51.660;5.824;2023-01-27T16:47:59;102730.0;;;5.6;81.0
60719;BME280;46567;51.660;5.824;2023-01-27T16:52:52;102730.0;;;5.6;81.5
60719;BME280;46567;51.660;5.824;2023-01-27T16:57:53;102740.0;;;5.6;81.0
60719;BME280;46567;51.660;5.824;2023-01-27T17:02:52;102750.0;;;5.6;81.5
60719;BME280;46567;51.660;5.824;2023-01-27T17:08:02;102750.0;;;5.6;81.5
60719;BME280;46567;51.660;5.824;2023-01-27T17:12:52;102750.0;;;5.6;81.5
60719;BME280;46567;51.660;5.824;2023-01-27T17:17:52;102760.0;;;5.6;81.5
60719;BME280;46567;51.660;5.824;2023-01-27T17:22:52;102750.0;;;5.6;81.5
60719;BME280;46567;51.660;5.824;2023-01-27T17:27:52;102750.0;;;5.6;81.5
60719;BME280;46567;51.660;5.824;2023-01-27T17:32:58;102760.0;;;5.6;81.0
60719;BME280;46567;51.660;5.824;2023-01-27T17:38:03;102760.0;;;5.6;81.5
60719;BME280;46567;51.660;5.824;2023-01-27T17:42:52;102770.0;;;5.6;81.5
60719;BME280;46567;51.660;5.824;2023-01-27T17:47:52;102770.0;;;5.6;81.5
60719;BME280;46567;51.660;5.824;2023-01-27T17:52:53;102770.0;;;5.6;81.5
60719;BME280;46567;51.660;5.824;2023-01-27T17:58:04;102770.0;;;5.5;81.5
60719;BME280;46567;51.660;5.824;2023-01-27T18:03:00;102780.0;;;5.5;82.0
60719;BME280;46567;51.660;5.824;2023-01-27T18:07:52;102780.0;;;5.6;82.0
60719;BME280;46567;51.660;5.824;2023-01-27T18:12:52;102780.0;;;5.6;82.0
60719;BME280;46567;51.660;5.824;2023-01-27T18:17:56;102780.0;;;5.5;81.5
60719;BME280;46567;51.660;5.824;2023-01-27T18:22:52;102790.0;;;5.5;81.0
60719;BME280;46567;51.660;5.824;2023-01-27T18:27:53;102780.0;;;5.5;81.5
60719;BME280;46567;51.660;5.824;2023-01-27T18:32:58;102790.0;;;5.5;81.5
60719;BME280;46567;51.660;5.824;2023-01-27T18:37:55;102790.0;;;5.5;81.5
60719;BME280;46567;51.660;5.824;2023-01-27T18:42:52;102800.0;;;5.5;81.5
60719;BME280;46567;51.660;5.824;2023-01-27T18:47:52;102800.0;;;5.5;81.5
60719;BME280;46567;51.660;5.824;2023-01-27T18:52:52;102810.0;;;5.5;81.5
60719;BME280;46567;51.660;5.824;2023-01-27T18:57:58;102810.0;;;5.4;81.5
60719;BME280;46567;51.660;5.824;2023-01-27T19:02:55;102810.0;;;5.4;82.0
60719;BME280;46567;51.660;5.824;2023-01-27T19:07:52;102830.0;;;5.4;82.0
60719;BME280;46567;51.660;5.824;2023-01-27T19:12:52;102830.0;;;5.4;81.5
60719;BME280;46567;51.660;5.824;2023-01-27T19:17:53;102830.0;;;5.4;82.0
60719;BME280;46567;51.660;5.824;2023-01-27T19:22:53;102840.0;;;5.4;82.0
60719;BME280;46567;51.660;5.824;2023-01-27T19:27:53;102840.0;;;5.4;81.0
60719;BME280;46567;51.660;5.824;2023-01-27T19:32:53;102840.0;;;5.4;81.0
60719;BME280;46567;51.660;5.824;2023-01-27T19:37:55;102840.0;;;5.4;81.0
60719;BME280;46567;51.660;5.824;2023-01-27T19:42:52;102840.0;;;5.4;80.5
60719;BME280;46567;51.660;5.824;2023-01-27T19:47:52;102840.0;;;5.3;81.0
60719;BME280;46567;51.660;5.824;2023-01-27T19:52:52;102850.0;;;5.4;81.0
60719;BME280;46567;51.660;5.824;2023-01-27T19:57:52;102850.0;;;5.3;81.0
60719;BME280;46567;51.660;5.824;2023-01-27T20:02:52;102850.0;;;5.3;81.0
60719;BME280;46567;51.660;5.824;2023-01-27T20:07:53;102850.0;;;5.3;81.0
60719;BME280;46567;51.660;5.824;2023-01-27T20:12:52;102850.0;;;5.3;80.5
60719;BME280;46567;51.660;5.824;2023-01-27T20:17:52;102860.0;;;5.2;81.0
60719;BME280;46567;51.660;5.824;2023-01-27T20:22:52;102860.0;;;5.2;81.0
60719;BME280;46567;51.660;5.824;2023-01-27T20:27:54;102870.0;;;5.2;81.0
60719;BME280;46567;51.660;5.824;2023-01-27T20:32:52;102860.0;;;5.2;81.0
60719;BME280;46567;51.660;5.824;2023-01-27T20:37:53;102860.0;;;5.1;81.0
60719;BME280;46567;51.660;5.824;2023-01-27T20:42:52;102860.0;;;5.2;81.0
60719;BME280;46567;51.660;5.824;2023-01-27T20:47:52;102860.0;;;5.1;81.0
60719;BME280;46567;51.660;5.824;2023-01-27T20:52:52;102860.0;;;5.1;81.0
60719;BME280;46567;51.660;5.824;2023-01-27T20:57:52;102860.0;;;5.1;81.0
60719;BME280;46567;51.660;5.824;2023-01-27T21:02:52;102860.0;;;5.1;81.0
60719;BME280;46567;51.660;5.824;2023-01-27T21:07:52;102860.0;;;5.0;80.5
60719;BME280;46567;51.660;5.824;2023-01-27T21:12:52;102860.0;;;5.0;81.5
60719;BME280;46567;51.660;5.824;2023-01-27T21:17:52;102870.0;;;5.0;81.0
60719;BME280;46567;51.660;5.824;2023-01-27T21:22:52;102860.0;;;5.0;81.0
60719;BME280;46567;51.660;5.824;2023-01-27T21:27:52;102860.0;;;5.0;81.0
60719;BME280;46567;51.660;5.824;2023-01-27T21:32:52;102860.0;;;4.9;81.0
60719;BME280;46567;51.660;5.824;2023-01-27T21:37:52;102860.0;;;4.9;81.0
60719;BME280;46567;51.660;5.824;2023-01-27T21:42:52;102850.0;;;4.9;81.0
60719;BME280;46567;51.660;5.824;2023-01-27T21:47:52;102840.0;;;4.9;81.0
60719;BME280;46567;51.660;5.824;2023-01-27T21:52:52;102850.0;;;4.8;81.0
60719;BME280;46567;51.660;5.824;2023-01-27T21:57:55;102850.0;;;4.8;80.5
60719;BME280;46567;51.660;5.824;2023-01-27T22:03:00;102850.0;;;4.8;80.5
60719;BME280;46567;51.660;5.824;2023-01-27T22:07:52;102850.0;;;4.8;80.5
60719;BME280;46567;51.660;5.824;2023-01-27T22:12:55;102850.0;;;4.8;80.5
60719;BME280;46567;51.660;5.824;2023-01-27T22:17:52;102850.0;;;4.8;81.0
60719;BME280;46567;51.660;5.824;2023-01-27T22:22:52;102850.0;;;4.8;81.0
60719;BME280;46567;51.660;5.824;2023-01-27T22:27:52;102840.0;;;4.7;81.0
60719;BME280;46567;51.660;5.824;2023-01-27T22:32:52;102840.0;;;4.6;80.5
60719;BME280;46567;51.660;5.824;2023-01-27T22:37:52;102840.0;;;4.6;81.0
60719;BME280;46567;51.660;5.824;2023-01-27T22:42:52;102840.0;;;4.7;81.0
60719;BME280;46567;51.660;5.824;2023-01-27T22:47:52;102830.0;;;4.6;81.0
60719;BME280;46567;51.660;5.824;2023-01-27T22:52:52;102840.0;;;4.6;81.0
60719;BME280;46567;51.660;5.824;2023-01-27T22:57:52;102830.0;;;4.6;81.0
60719;BME280;46567;51.660;5.824;2023-01-27T23:02:52;102830.0;;;4.6;81.0
60719;BME280;46567;51.660;5.824;2023-01-27T23:07:52;102840.0;;;4.6;81.0
60719;BME280;46567;51.660;5.824;2023-01-27T23:12:52;102840.0;;;4.6;81.0
60719;BME280;46567;51.660;5.824;2023-01-27T23:17:52;102840.0;;;4.6;81.0
60719;BME280;46567;51.660;5.824;2023-01-27T23:22:52;102840.0;;;4.6;81.0
60719;BME280;46567;51.660;5.824;2023-01-27T23:27:52;102840.0;;;4.6;81.0
60719;BME280;46567;51.660;5.824;2023-01-27T23:32:53;102840.0;;;4.6;81.5
60719;BME280;46567;51.660;5.824;2023-01-27T23:37:52;102840.0;;;4.6;81.0
60719;BME280;46567;51.660;5.824;2023-01-27T23:42:52;102840.0;;;4.6;81.5
60719;BME280;46567;51.660;5.824;2023-01-27T23:47:52;102850.0;;;4.6;81.0
60719;BME280;46567;51.660;5.824;2023-01-27T23:52:52;102840.0;;;4.5;81.0
60719;BME280;46567;51.660;5.824;2023-01-27T23:57:52;102830.0;;;4.5;81.0
